sensor_id;sensor_type;location;lat;lon;timestamp;pressure;altitude;pressure_sealevel;temperature;humidity
67740;BME280;54536;50.090;14.420;2022-09-21T00:01:24;100149.88;;;13.59;58.57
67740;BME280;54536;50.090;14.420;2022-09-21T00:03:58;100150.38;;;13.44;58.48
67740;BME280;54536;50.090;14.420;2022-09-21T00:06:32;100144.28;;;13.43;58.32
67740;BME280;54536;50.090;14.420;2022-09-21T00:08:59;100151.53;;;13.41;58.29
67740;BME280;54536;50.090;14.420;2022-09-21T00:11:28;100149.16;;;13.48;57.83
67740;BME280;54536;50.090;14.420;2022-09-21T00:13:58;100147.91;;;13.52;58.21
67740;BME280;54536;50.090;14.420;2022-09-21T00:16:27;100148.63;;;13.54;58.07
67740;BME280;54536;50.090;14.420;2022-09-21T00:18:55;100151.00;;;13.57;58.89
67740;BME280;54536;50.090;14.420;2022-09-21T00:21:21;100148.91;;;13.51;58.54
67740;BME280;54536;50.090;14.420;2022-09-21T00:23:49;100154.19;;;13.51;57.77
67740;BME280;54536;50.090;14.420;2022-09-21T00:26:18;100147.50;;;13.56;58.55
67740;BME280;54536;50.090;14.420;2022-09-21T00:28:45;100154.19;;;13.61;57.79
67740;BME280;54536;50.090;14.420;2022-09-21T00:31:18;100150.84;;;13.68;58.12
67740;BME280;54536;50.090;14.420;2022-09-21T00:33:44;100153.06;;;13.53;58.75
67740;BME280;54536;50.090;14.420;2022-09-21T00:36:13;100147.75;;;13.53;59.40
67740;BME280;54536;50.090;14.420;2022-09-21T00:38:42;100152.38;;;13.51;58.81
67740;BME280;54536;50.090;14.420;2022-09-21T00:41:10;100151.28;;;13.54;59.13
67740;BME280;54536;50.090;14.420;2022-09-21T00:43:43;100150.56;;;13.52;59.24
67740;BME280;54536;50.090;14.420;2022-09-21T00:46:28;100153.63;;;13.57;58.22
67740;BME280;54536;50.090;14.420;2022-09-21T00:48:57;100159.88;;;13.66;58.51
67740;BME280;54536;50.090;14.420;2022-09-21T00:51:24;100153.03;;;13.44;58.95
67740;BME280;54536;50.090;14.420;2022-09-21T00:53:56;100154.44;;;13.38;58.35
67740;BME280;54536;50.090;14.420;2022-09-21T00:56:25;100161.69;;;13.55;58.33
67740;BME280;54536;50.090;14.420;2022-09-21T00:58:53;100160.41;;;13.50;58.13
67740;BME280;54536;50.090;14.420;2022-09-21T01:01:20;100161.84;;;13.54;57.79
67740;BME280;54536;50.090;14.420;2022-09-21T01:03:54;100172.00;;;13.58;57.77
67740;BME280;54536;50.090;14.420;2022-09-21T01:06:22;100165.59;;;13.51;57.60
67740;BME280;54536;50.090;14.420;2022-09-21T01:08:54;100170.59;;;13.54;58.17
67740;BME280;54536;50.090;14.420;2022-09-21T01:17:15;100172.25;;;13.55;58.06
67740;BME280;54536;50.090;14.420;2022-09-21T01:25:29;100174.28;;;13.32;58.33
67740;BME280;54536;50.090;14.420;2022-09-21T01:28:32;100179.03;;;13.39;58.79
67740;BME280;54536;50.090;14.420;2022-09-21T01:31:09;100187.25;;;13.45;57.80
67740;BME280;54536;50.090;14.420;2022-09-21T01:33:47;100177.22;;;13.39;58.17
67740;BME280;54536;50.090;14.420;2022-09-21T01:36:21;100179.84;;;13.29;57.75
67740;BME280;54536;50.090;14.420;2022-09-21T01:38:55;100183.91;;;13.43;58.09
67740;BME280;54536;50.090;14.420;2022-09-21T01:41:27;100184.56;;;13.26;58.98
67740;BME280;54536;50.090;14.420;2022-09-21T01:43:59;100184.47;;;13.47;58.56
67740;BME280;54536;50.090;14.420;2022-09-21T01:46:33;100185.31;;;13.47;58.05
67740;BME280;54536;50.090;14.420;2022-09-21T01:49:11;100184.06;;;13.21;58.04
67740;BME280;54536;50.090;14.420;2022-09-21T01:51:45;100187.97;;;13.47;58.69
67740;BME280;54536;50.090;14.420;2022-09-21T01:54:29;100180.88;;;13.17;59.01
67740;BME280;54536;50.090;14.420;2022-09-21T01:57:13;100178.44;;;13.25;58.20
67740;BME280;54536;50.090;14.420;2022-09-21T01:59:55;100181.50;;;13.30;58.07
67740;BME280;54536;50.090;14.420;2022-09-21T02:05:05;100174.06;;;13.15;58.56
67740;BME280;54536;50.090;14.420;2022-09-21T02:07:33;100176.53;;;13.06;58.81
67740;BME280;54536;50.090;14.420;2022-09-21T02:10:01;100172.91;;;13.28;58.40
67740;BME280;54536;50.090;14.420;2022-09-21T02:12:28;100177.47;;;13.26;58.28
67740;BME280;54536;50.090;14.420;2022-09-21T02:14:57;100178.75;;;13.32;58.36
67740;BME280;54536;50.090;14.420;2022-09-21T02:17:45;100173.50;;;13.51;57.21
67740;BME280;54536;50.090;14.420;2022-09-21T02:20:27;100176.53;;;13.47;57.67
67740;BME280;54536;50.090;14.420;2022-09-21T02:25:44;100180.69;;;13.40;58.58
67740;BME280;54536;50.090;14.420;2022-09-21T02:31:28;100182.38;;;13.50;57.91
67740;BME280;54536;50.090;14.420;2022-09-21T02:34:07;100183.59;;;13.37;58.16
67740;BME280;54536;50.090;14.420;2022-09-21T02:36:47;100177.22;;;13.39;58.49
67740;BME280;54536;50.090;14.420;2022-09-21T02:39:32;100181.00;;;13.46;57.28
67740;BME280;54536;50.090;14.420;2022-09-21T02:44:45;100178.25;;;13.57;57.13
67740;BME280;54536;50.090;14.420;2022-09-21T02:47:42;100177.81;;;13.52;57.83
67740;BME280;54536;50.090;14.420;2022-09-21T02:50:21;100180.22;;;13.65;57.12
67740;BME280;54536;50.090;14.420;2022-09-21T02:52:58;100182.97;;;13.54;57.52
67740;BME280;54536;50.090;14.420;2022-09-21T02:55:26;100183.38;;;13.49;57.07
67740;BME280;54536;50.090;14.420;2022-09-21T02:57:54;100179.38;;;13.65;57.75
67740;BME280;54536;50.090;14.420;2022-09-21T03:00:27;100186.28;;;13.46;57.25
67740;BME280;54536;50.090;14.420;2022-09-21T03:03:22;100185.34;;;13.67;57.96
67740;BME280;54536;50.090;14.420;2022-09-21T03:05:52;100181.75;;;13.68;57.44
67740;BME280;54536;50.090;14.420;2022-09-21T03:08:19;100186.31;;;13.56;57.13
67740;BME280;54536;50.090;14.420;2022-09-21T03:10:45;100182.00;;;13.55;57.93
67740;BME280;54536;50.090;14.420;2022-09-21T03:13:14;100187.97;;;13.67;56.99
67740;BME280;54536;50.090;14.420;2022-09-21T03:15:41;100191.59;;;13.66;56.54
67740;BME280;54536;50.090;14.420;2022-09-21T03:18:08;100196.34;;;13.72;56.61
67740;BME280;54536;50.090;14.420;2022-09-21T03:20:39;100198.88;;;13.73;56.67
67740;BME280;54536;50.090;14.420;2022-09-21T03:23:06;100204.84;;;13.75;56.87
67740;BME280;54536;50.090;14.420;2022-09-21T03:25:33;100209.44;;;13.73;57.06
67740;BME280;54536;50.090;14.420;2022-09-21T03:27:58;100204.38;;;13.51;57.07
67740;BME280;54536;50.090;14.420;2022-09-21T03:30:26;100207.44;;;13.56;57.06
67740;BME280;54536;50.090;14.420;2022-09-21T03:32:54;100210.97;;;13.76;57.50
67740;BME280;54536;50.090;14.420;2022-09-21T03:35:27;100208.84;;;13.70;57.44
67740;BME280;54536;50.090;14.420;2022-09-21T03:37:53;100213.56;;;13.66;57.43
67740;BME280;54536;50.090;14.420;2022-09-21T03:40:20;100205.94;;;13.73;57.16
67740;BME280;54536;50.090;14.420;2022-09-21T03:42:46;100206.81;;;13.73;57.58
67740;BME280;54536;50.090;14.420;2022-09-21T03:45:12;100211.09;;;13.65;57.42
67740;BME280;54536;50.090;14.420;2022-09-21T03:47:38;100211.78;;;13.67;57.74
67740;BME280;54536;50.090;14.420;2022-09-21T03:50:06;100213.41;;;13.48;57.61
67740;BME280;54536;50.090;14.420;2022-09-21T03:52:33;100213.38;;;13.39;58.04
67740;BME280;54536;50.090;14.420;2022-09-21T03:55:01;100215.84;;;13.30;58.73
67740;BME280;54536;50.090;14.420;2022-09-21T03:57:29;100219.28;;;13.62;57.67
67740;BME280;54536;50.090;14.420;2022-09-21T03:59:55;100219.50;;;13.39;57.96
67740;BME280;54536;50.090;14.420;2022-09-21T04:02:21;100226.13;;;13.64;58.40
67740;BME280;54536;50.090;14.420;2022-09-21T04:04:47;100230.13;;;13.58;57.74
67740;BME280;54536;50.090;14.420;2022-09-21T04:07:13;100230.97;;;13.69;57.57
67740;BME280;54536;50.090;14.420;2022-09-21T04:09:40;100228.00;;;13.52;57.94
67740;BME280;54536;50.090;14.420;2022-09-21T04:12:06;100228.28;;;13.49;58.28
67740;BME280;54536;50.090;14.420;2022-09-21T04:14:32;100229.56;;;13.55;57.79
67740;BME280;54536;50.090;14.420;2022-09-21T04:16:58;100224.38;;;13.44;57.59
67740;BME280;54536;50.090;14.420;2022-09-21T04:19:24;100237.59;;;13.53;57.86
67740;BME280;54536;50.090;14.420;2022-09-21T04:21:51;100231.63;;;13.51;58.02
67740;BME280;54536;50.090;14.420;2022-09-21T04:24:19;100230.63;;;13.43;58.56
67740;BME280;54536;50.090;14.420;2022-09-21T04:26:54;100235.13;;;13.52;58.28
67740;BME280;54536;50.090;14.420;2022-09-21T04:29:20;100233.22;;;13.64;58.20
67740;BME280;54536;50.090;14.420;2022-09-21T04:31:46;100226.88;;;13.45;59.26
67740;BME280;54536;50.090;14.420;2022-09-21T04:34:13;100241.06;;;13.44;59.28
67740;BME280;54536;50.090;14.420;2022-09-21T04:36:39;100240.97;;;13.55;58.83
67740;BME280;54536;50.090;14.420;2022-09-21T04:39:05;100241.47;;;13.40;58.61
67740;BME280;54536;50.090;14.420;2022-09-21T04:41:34;100245.41;;;13.55;58.47
67740;BME280;54536;50.090;14.420;2022-09-21T04:44:00;100239.88;;;13.58;58.16
67740;BME280;54536;50.090;14.420;2022-09-21T04:46:28;100242.47;;;13.48;59.11
67740;BME280;54536;50.090;14.420;2022-09-21T04:48:55;100245.34;;;13.35;58.98
67740;BME280;54536;50.090;14.420;2022-09-21T04:51:21;100240.16;;;13.65;58.51
67740;BME280;54536;50.090;14.420;2022-09-21T04:53:47;100246.84;;;13.69;58.25
67740;BME280;54536;50.090;14.420;2022-09-21T04:56:14;100252.06;;;13.49;58.27
67740;BME280;54536;50.090;14.420;2022-09-21T04:58:42;100255.06;;;13.75;58.39
67740;BME280;54536;50.090;14.420;2022-09-21T05:01:08;100261.59;;;13.71;58.52
67740;BME280;54536;50.090;14.420;2022-09-21T05:03:43;100261.59;;;13.71;57.79
67740;BME280;54536;50.090;14.420;2022-09-21T05:06:10;100260.06;;;13.69;58.04
67740;BME280;54536;50.090;14.420;2022-09-21T05:08:38;100258.22;;;13.59;58.30
67740;BME280;54536;50.090;14.420;2022-09-21T05:11:29;100256.69;;;13.67;58.62
67740;BME280;54536;50.090;14.420;2022-09-21T05:13:56;100258.78;;;13.63;58.21
67740;BME280;54536;50.090;14.420;2022-09-21T05:16:22;100257.84;;;13.74;58.03
67740;BME280;54536;50.090;14.420;2022-09-21T05:18:52;100257.38;;;13.59;58.44
67740;BME280;54536;50.090;14.420;2022-09-21T05:21:22;100261.38;;;13.53;58.39
67740;BME280;54536;50.090;14.420;2022-09-21T05:23:48;100266.38;;;13.47;59.27
67740;BME280;54536;50.090;14.420;2022-09-21T05:26:14;100267.81;;;13.51;58.22
67740;BME280;54536;50.090;14.420;2022-09-21T05:28:40;100275.09;;;13.78;58.82
67740;BME280;54536;50.090;14.420;2022-09-21T05:33:51;100276.38;;;13.84;58.23
67740;BME280;54536;50.090;14.420;2022-09-21T05:39:25;100280.28;;;13.89;58.11
67740;BME280;54536;50.090;14.420;2022-09-21T05:41:57;100281.94;;;13.80;58.34
67740;BME280;54536;50.090;14.420;2022-09-21T05:44:24;100290.34;;;13.55;58.80
67740;BME280;54536;50.090;14.420;2022-09-21T06:00:21;100298.56;;;13.62;58.49
67740;BME280;54536;50.090;14.420;2022-09-21T06:05:28;100297.84;;;13.59;58.78
67740;BME280;54536;50.090;14.420;2022-09-21T06:07:59;100305.97;;;13.68;58.34
67740;BME280;54536;50.090;14.420;2022-09-21T06:10:31;100307.38;;;13.72;57.41
67740;BME280;54536;50.090;14.420;2022-09-21T06:12:58;100305.16;;;13.77;57.80
67740;BME280;54536;50.090;14.420;2022-09-21T06:15:25;100301.16;;;13.92;57.73
67740;BME280;54536;50.090;14.420;2022-09-21T06:17:51;100300.22;;;14.03;57.69
67740;BME280;54536;50.090;14.420;2022-09-21T06:20:17;100308.31;;;14.11;57.48
67740;BME280;54536;50.090;14.420;2022-09-21T06:22:43;100311.06;;;14.00;57.88
67740;BME280;54536;50.090;14.420;2022-09-21T06:25:10;100310.22;;;13.99;56.89
67740;BME280;54536;50.090;14.420;2022-09-21T06:27:36;100313.28;;;13.95;56.95
67740;BME280;54536;50.090;14.420;2022-09-21T06:30:09;100314.13;;;14.05;56.70
67740;BME280;54536;50.090;14.420;2022-09-21T06:32:35;100318.28;;;13.98;57.29
67740;BME280;54536;50.090;14.420;2022-09-21T06:35:02;100320.09;;;13.88;56.72
67740;BME280;54536;50.090;14.420;2022-09-21T06:37:30;100317.63;;;14.15;56.46
67740;BME280;54536;50.090;14.420;2022-09-21T06:39:56;100323.91;;;14.24;56.13
67740;BME280;54536;50.090;14.420;2022-09-21T06:42:26;100325.72;;;14.23;55.96
67740;BME280;54536;50.090;14.420;2022-09-21T06:44:52;100318.16;;;14.09;55.76
67740;BME280;54536;50.090;14.420;2022-09-21T06:47:18;100325.19;;;14.29;55.57
67740;BME280;54536;50.090;14.420;2022-09-21T06:49:47;100320.84;;;14.28;56.49
67740;BME280;54536;50.090;14.420;2022-09-21T06:52:14;100319.91;;;14.29;56.20
67740;BME280;54536;50.090;14.420;2022-09-21T06:54:41;100320.19;;;14.46;55.94
67740;BME280;54536;50.090;14.420;2022-09-21T06:57:19;100314.50;;;14.50;55.39
67740;BME280;54536;50.090;14.420;2022-09-21T06:59:47;100315.84;;;14.35;55.50
67740;BME280;54536;50.090;14.420;2022-09-21T07:02:20;100321.28;;;14.43;55.75
67740;BME280;54536;50.090;14.420;2022-09-21T07:04:47;100323.81;;;14.64;56.02
67740;BME280;54536;50.090;14.420;2022-09-21T07:07:13;100318.94;;;14.50;55.69
67740;BME280;54536;50.090;14.420;2022-09-21T07:09:40;100317.59;;;14.56;55.19
67740;BME280;54536;50.090;14.420;2022-09-21T07:12:07;100328.84;;;14.58;55.04
67740;BME280;54536;50.090;14.420;2022-09-21T07:14:33;100328.84;;;14.67;55.06
67740;BME280;54536;50.090;14.420;2022-09-21T07:17:00;100327.47;;;14.83;54.84
67740;BME280;54536;50.090;14.420;2022-09-21T07:19:26;100329.94;;;14.84;54.39
67740;BME280;54536;50.090;14.420;2022-09-21T07:21:54;100333.88;;;14.61;56.03
67740;BME280;54536;50.090;14.420;2022-09-21T07:24:20;100335.41;;;14.83;54.74
67740;BME280;54536;50.090;14.420;2022-09-21T07:26:46;100335.66;;;14.99;54.70
67740;BME280;54536;50.090;14.420;2022-09-21T07:29:12;100337.03;;;15.03;53.53
67740;BME280;54536;50.090;14.420;2022-09-21T07:31:38;100333.97;;;15.17;53.37
67740;BME280;54536;50.090;14.420;2022-09-21T07:34:04;100335.91;;;15.25;52.75
67740;BME280;54536;50.090;14.420;2022-09-21T07:36:30;100331.59;;;15.14;52.25
67740;BME280;54536;50.090;14.420;2022-09-21T07:38:56;100335.44;;;15.39;51.63
67740;BME280;54536;50.090;14.420;2022-09-21T07:42:00;100336.81;;;15.53;51.29
67740;BME280;54536;50.090;14.420;2022-09-21T07:44:26;100340.50;;;15.80;51.22
67740;BME280;54536;50.090;14.420;2022-09-21T07:46:52;100344.38;;;15.76;51.35
67740;BME280;54536;50.090;14.420;2022-09-21T07:49:18;100341.34;;;15.71;50.71
67740;BME280;54536;50.090;14.420;2022-09-21T07:51:44;100344.56;;;15.74;51.04
67740;BME280;54536;50.090;14.420;2022-09-21T07:54:11;100342.44;;;15.78;51.45
67740;BME280;54536;50.090;14.420;2022-09-21T07:56:37;100348.56;;;15.78;51.59
67740;BME280;54536;50.090;14.420;2022-09-21T07:59:04;100344.22;;;15.87;51.97
67740;BME280;54536;50.090;14.420;2022-09-21T08:01:35;100357.28;;;15.98;51.80
67740;BME280;54536;50.090;14.420;2022-09-21T08:04:03;100351.38;;;16.04;51.08
67740;BME280;54536;50.090;14.420;2022-09-21T08:06:31;100347.97;;;16.12;50.81
67740;BME280;54536;50.090;14.420;2022-09-21T08:08:58;100344.78;;;16.08;51.01
67740;BME280;54536;50.090;14.420;2022-09-21T08:11:26;100343.72;;;16.29;50.83
67740;BME280;54536;50.090;14.420;2022-09-21T08:13:55;100345.13;;;16.23;49.83
67740;BME280;54536;50.090;14.420;2022-09-21T08:16:22;100351.16;;;16.43;50.35
67740;BME280;54536;50.090;14.420;2022-09-21T08:18:48;100353.44;;;16.56;50.33
67740;BME280;54536;50.090;14.420;2022-09-21T08:21:15;100351.06;;;16.53;49.98
67740;BME280;54536;50.090;14.420;2022-09-21T08:23:41;100357.81;;;16.47;49.47
67740;BME280;54536;50.090;14.420;2022-09-21T08:26:11;100354.19;;;16.48;49.96
67740;BME280;54536;50.090;14.420;2022-09-21T08:28:45;100349.41;;;16.52;49.63
67740;BME280;54536;50.090;14.420;2022-09-21T08:31:16;100354.84;;;16.50;50.30
67740;BME280;54536;50.090;14.420;2022-09-21T08:33:44;100361.53;;;16.54;50.53
67740;BME280;54536;50.090;14.420;2022-09-21T08:36:10;100354.50;;;16.45;50.15
67740;BME280;54536;50.090;14.420;2022-09-21T08:38:38;100359.50;;;16.48;50.03
67740;BME280;54536;50.090;14.420;2022-09-21T08:44:21;100365.94;;;16.46;49.53
67740;BME280;54536;50.090;14.420;2022-09-21T08:47:24;100360.75;;;16.44;49.77
67740;BME280;54536;50.090;14.420;2022-09-21T08:49:49;100362.06;;;16.40;50.10
67740;BME280;54536;50.090;14.420;2022-09-21T08:52:19;100367.59;;;16.47;49.63
67740;BME280;54536;50.090;14.420;2022-09-21T08:54:59;100368.31;;;16.49;49.15
67740;BME280;54536;50.090;14.420;2022-09-21T08:57:31;100365.13;;;16.45;49.62
67740;BME280;54536;50.090;14.420;2022-09-21T09:00:00;100371.78;;;16.49;49.87
67740;BME280;54536;50.090;14.420;2022-09-21T09:10:40;100363.78;;;16.77;49.60
67740;BME280;54536;50.090;14.420;2022-09-21T09:16:04;100368.91;;;16.96;49.15
67740;BME280;54536;50.090;14.420;2022-09-21T09:18:59;100366.25;;;16.96;49.30
67740;BME280;54536;50.090;14.420;2022-09-21T09:21:38;100359.13;;;16.97;49.24
67740;BME280;54536;50.090;14.420;2022-09-21T09:27:09;100362.38;;;17.08;48.70
67740;BME280;54536;50.090;14.420;2022-09-21T09:29:46;100363.50;;;17.06;48.62
67740;BME280;54536;50.090;14.420;2022-09-21T09:32:17;100359.63;;;17.18;49.21
67740;BME280;54536;50.090;14.420;2022-09-21T09:51:55;100355.09;;;17.63;47.17
67740;BME280;54536;50.090;14.420;2022-09-21T09:54:25;100350.13;;;17.68;47.24
67740;BME280;54536;50.090;14.420;2022-09-21T09:56:53;100354.03;;;17.82;46.35
67740;BME280;54536;50.090;14.420;2022-09-21T09:59:53;100348.28;;;17.94;46.13
67740;BME280;54536;50.090;14.420;2022-09-21T10:02:26;100342.13;;;17.94;46.49
67740;BME280;54536;50.090;14.420;2022-09-21T10:05:00;100350.41;;;17.91;45.66
67740;BME280;54536;50.090;14.420;2022-09-21T10:07:37;100343.94;;;17.93;45.54
67740;BME280;54536;50.090;14.420;2022-09-21T10:10:31;100342.63;;;17.97;46.28
67740;BME280;54536;50.090;14.420;2022-09-21T10:16:05;100339.97;;;17.97;46.26
67740;BME280;54536;50.090;14.420;2022-09-21T10:21:16;100341.47;;;18.00;45.86
67740;BME280;54536;50.090;14.420;2022-09-21T10:23:51;100338.69;;;18.10;46.31
67740;BME280;54536;50.090;14.420;2022-09-21T10:26:20;100332.88;;;18.14;46.28
67740;BME280;54536;50.090;14.420;2022-09-21T10:28:59;100334.88;;;18.20;45.94
67740;BME280;54536;50.090;14.420;2022-09-21T10:31:29;100325.75;;;18.23;45.77
67740;BME280;54536;50.090;14.420;2022-09-21T10:34:15;100325.38;;;18.18;46.39
67740;BME280;54536;50.090;14.420;2022-09-21T10:36:49;100325.09;;;18.29;45.80
67740;BME280;54536;50.090;14.420;2022-09-21T10:41:51;100328.91;;;18.27;44.42
67740;BME280;54536;50.090;14.420;2022-09-21T10:44:21;100327.56;;;18.31;44.10
67740;BME280;54536;50.090;14.420;2022-09-21T10:46:49;100325.78;;;18.39;45.06
67740;BME280;54536;50.090;14.420;2022-09-21T10:49:34;100325.94;;;18.46;45.42
67740;BME280;54536;50.090;14.420;2022-09-21T10:52:01;100315.13;;;18.39;45.42
67740;BME280;54536;50.090;14.420;2022-09-21T10:54:30;100319.78;;;18.45;44.80
67740;BME280;54536;50.090;14.420;2022-09-21T10:57:06;100317.63;;;18.57;44.85
67740;BME280;54536;50.090;14.420;2022-09-21T10:59:35;100313.34;;;18.73;44.47
67740;BME280;54536;50.090;14.420;2022-09-21T11:02:25;100316.00;;;18.97;44.11
67740;BME280;54536;50.090;14.420;2022-09-21T11:07:45;100305.34;;;19.61;41.95
67740;BME280;54536;50.090;14.420;2022-09-21T11:15:50;100307.28;;;19.92;41.87
67740;BME280;54536;50.090;14.420;2022-09-21T11:18:45;100299.03;;;19.62;42.75
67740;BME280;54536;50.090;14.420;2022-09-21T11:24:41;100300.81;;;19.06;43.93
67740;BME280;54536;50.090;14.420;2022-09-21T11:27:42;100302.94;;;19.43;43.11
67740;BME280;54536;50.090;14.420;2022-09-21T11:30:17;100305.84;;;20.04;41.76
67740;BME280;54536;50.090;14.420;2022-09-21T11:39:45;100291.41;;;21.05;37.86
67740;BME280;54536;50.090;14.420;2022-09-21T11:42:43;100296.66;;;20.84;38.88
67740;BME280;54536;50.090;14.420;2022-09-21T12:02:16;100275.66;;;20.49;39.09
67740;BME280;54536;50.090;14.420;2022-09-21T12:04:54;100264.50;;;20.54;38.47
67740;BME280;54536;50.090;14.420;2022-09-21T12:13:50;100260.81;;;20.24;40.06
67740;BME280;54536;50.090;14.420;2022-09-21T12:19:36;100251.88;;;20.17;40.59
67740;BME280;54536;50.090;14.420;2022-09-21T12:24:51;100259.47;;;19.74;40.39
67740;BME280;54536;50.090;14.420;2022-09-21T12:30:24;100258.84;;;19.63;40.06
67740;BME280;54536;50.090;14.420;2022-09-21T12:39:25;100258.47;;;19.27;40.73
67740;BME280;54536;50.090;14.420;2022-09-21T12:42:24;100251.00;;;19.14;40.22
67740;BME280;54536;50.090;14.420;2022-09-21T12:47:29;100262.03;;;19.03;40.00
67740;BME280;54536;50.090;14.420;2022-09-21T12:50:11;100263.88;;;18.94;41.04
67740;BME280;54536;50.090;14.420;2022-09-21T12:52:42;100267.38;;;18.79;42.37
67740;BME280;54536;50.090;14.420;2022-09-21T13:09:43;100277.94;;;19.36;39.08
67740;BME280;54536;50.090;14.420;2022-09-21T13:12:25;100273.44;;;19.28;38.68
67740;BME280;54536;50.090;14.420;2022-09-21T13:20:53;100271.66;;;19.12;40.18
67740;BME280;54536;50.090;14.420;2022-09-21T13:23:24;100269.13;;;19.27;39.91
67740;BME280;54536;50.090;14.420;2022-09-21T13:26:07;100267.81;;;19.23;40.28
67740;BME280;54536;50.090;14.420;2022-09-21T13:28:42;100258.13;;;19.30;38.93
67740;BME280;54536;50.090;14.420;2022-09-21T13:31:54;100255.59;;;19.37;38.89
67740;BME280;54536;50.090;14.420;2022-09-21T13:34:40;100255.91;;;19.42;38.18
67740;BME280;54536;50.090;14.420;2022-09-21T13:47:46;100243.41;;;19.42;37.86
67740;BME280;54536;50.090;14.420;2022-09-21T13:50:42;100240.59;;;19.36;37.96
67740;BME280;54536;50.090;14.420;2022-09-21T13:53:24;100243.34;;;19.11;37.65
67740;BME280;54536;50.090;14.420;2022-09-21T13:55:58;100243.03;;;18.98;37.69
67740;BME280;54536;50.090;14.420;2022-09-21T13:58:38;100240.19;;;19.00;37.41
67740;BME280;54536;50.090;14.420;2022-09-21T14:01:16;100229.56;;;18.83;38.62
67740;BME280;54536;50.090;14.420;2022-09-21T14:03:57;100230.06;;;18.70;38.84
67740;BME280;54536;50.090;14.420;2022-09-21T14:06:42;100230.72;;;18.97;39.32
67740;BME280;54536;50.090;14.420;2022-09-21T14:09:27;100228.06;;;18.97;38.87
67740;BME280;54536;50.090;14.420;2022-09-21T14:12:01;100228.56;;;18.76;38.89
67740;BME280;54536;50.090;14.420;2022-09-21T14:14:36;100221.06;;;18.80;38.73
67740;BME280;54536;50.090;14.420;2022-09-21T14:17:40;100220.44;;;18.78;39.64
67740;BME280;54536;50.090;14.420;2022-09-21T14:20:27;100221.56;;;18.83;38.78
67740;BME280;54536;50.090;14.420;2022-09-21T14:25:51;100222.06;;;18.95;40.36
67740;BME280;54536;50.090;14.420;2022-09-21T14:31:05;100222.56;;;18.66;40.99
67740;BME280;54536;50.090;14.420;2022-09-21T14:33:42;100228.41;;;18.45;44.26
67740;BME280;54536;50.090;14.420;2022-09-21T14:36:17;100236.34;;;17.96;46.70
67740;BME280;54536;50.090;14.420;2022-09-21T14:38:49;100248.41;;;17.74;48.45
67740;BME280;54536;50.090;14.420;2022-09-21T14:41:21;100251.31;;;17.54;51.05
67740;BME280;54536;50.090;14.420;2022-09-21T14:43:54;100247.63;;;17.47;51.30
67740;BME280;54536;50.090;14.420;2022-09-21T15:00:21;100240.94;;;17.01;52.62
67740;BME280;54536;50.090;14.420;2022-09-21T15:08:46;100237.44;;;17.00;51.26
67740;BME280;54536;50.090;14.420;2022-09-21T15:11:43;100239.97;;;17.10;52.58
67740;BME280;54536;50.090;14.420;2022-09-21T15:20:37;100225.19;;;16.81;55.71
67740;BME280;54536;50.090;14.420;2022-09-21T15:23:17;100229.59;;;16.91;54.24
67740;BME280;54536;50.090;14.420;2022-09-21T15:25:56;100236.50;;;16.66;54.21
67740;BME280;54536;50.090;14.420;2022-09-21T15:28:26;100234.34;;;16.87;54.01
67740;BME280;54536;50.090;14.420;2022-09-21T15:30:56;100236.59;;;17.00;53.30
67740;BME280;54536;50.090;14.420;2022-09-21T15:33:23;100233.78;;;17.01;52.87
67740;BME280;54536;50.090;14.420;2022-09-21T15:35:49;100222.75;;;16.88;53.05
67740;BME280;54536;50.090;14.420;2022-09-21T15:38:32;100230.81;;;16.78;53.09
67740;BME280;54536;50.090;14.420;2022-09-21T15:41:01;100226.88;;;16.65;53.36
67740;BME280;54536;50.090;14.420;2022-09-21T15:43:29;100227.13;;;16.53;53.02
67740;BME280;54536;50.090;14.420;2022-09-21T15:46:04;100230.19;;;16.67;53.04
67740;BME280;54536;50.090;14.420;2022-09-21T15:48:37;100229.13;;;16.77;53.46
67740;BME280;54536;50.090;14.420;2022-09-21T15:53:44;100228.00;;;16.80;55.59
67740;BME280;54536;50.090;14.420;2022-09-21T15:56:21;100223.19;;;16.83;54.34
67740;BME280;54536;50.090;14.420;2022-09-21T15:58:48;100224.41;;;16.89;53.58
67740;BME280;54536;50.090;14.420;2022-09-21T16:01:18;100221.34;;;16.76;52.28
67740;BME280;54536;50.090;14.420;2022-09-21T16:03:47;100221.09;;;16.69;50.61
67740;BME280;54536;50.090;14.420;2022-09-21T16:08:46;100222.03;;;16.78;53.41
67740;BME280;54536;50.090;14.420;2022-09-21T16:11:32;100218.81;;;16.74;52.56
67740;BME280;54536;50.090;14.420;2022-09-21T16:14:13;100224.19;;;16.82;52.33
67740;BME280;54536;50.090;14.420;2022-09-21T16:22:39;100231.50;;;16.62;52.47
67740;BME280;54536;50.090;14.420;2022-09-21T16:27:55;100246.56;;;16.36;53.70
67740;BME280;54536;50.090;14.420;2022-09-21T16:30:52;100233.81;;;16.39;54.58
67740;BME280;54536;50.090;14.420;2022-09-21T16:38:59;100244.25;;;16.41;55.62
67740;BME280;54536;50.090;14.420;2022-09-21T16:41:39;100238.50;;;16.28;54.34
67740;BME280;54536;50.090;14.420;2022-09-21T16:44:16;100238.94;;;16.41;54.53
67740;BME280;54536;50.090;14.420;2022-09-21T16:46:47;100251.41;;;16.41;54.80
67740;BME280;54536;50.090;14.420;2022-09-21T16:49:18;100243.47;;;16.23;54.83
67740;BME280;54536;50.090;14.420;2022-09-21T16:51:48;100248.09;;;16.38;54.60
67740;BME280;54536;50.090;14.420;2022-09-21T16:54:16;100252.09;;;16.43;55.13
67740;BME280;54536;50.090;14.420;2022-09-21T16:56:43;100243.75;;;16.37;56.95